sensor_id;sensor_type;location;lat;lon;timestamp;temperature;humidity
43671;DHT22;29267;50.906;7.248;2023-09-19T00:01:15;14.60;99.90
43671;DHT22;29267;50.906;7.248;2023-09-19T00:03:45;14.60;99.90
43671;DHT22;29267;50.906;7.248;2023-09-19T00:06:10;14.50;99.90
43671;DHT22;29267;50.906;7.248;2023-09-19T00:08:38;14.50;99.90
43671;DHT22;29267;50.906;7.248;2023-09-19T00:11:04;14.50;99.90
43671;DHT22;29267;50.906;7.248;2023-09-19T00:13:30;14.50;99.90
43671;DHT22;29267;50.906;7.248;2023-09-19T00:15:56;14.50;99.90
43671;DHT22;29267;50.906;7.248;2023-09-19T00:18:24;14.40;99.90
43671;DHT22;29267;50.906;7.248;2023-09-19T00:20:57;14.40;99.90
43671;DHT22;29267;50.906;7.248;2023-09-19T00:23:23;14.40;99.90
43671;DHT22;29267;50.906;7.248;2023-09-19T00:25:50;14.40;99.90
43671;DHT22;29267;50.906;7.248;2023-09-19T00:28:17;14.30;99.90
43671;DHT22;29267;50.906;7.248;2023-09-19T00:30:44;14.30;99.90
43671;DHT22;29267;50.906;7.248;2023-09-19T00:33:11;14.30;99.90
43671;DHT22;29267;50.906;7.248;2023-09-19T00:35:50;14.30;99.90
43671;DHT22;29267;50.906;7.248;2023-09-19T00:38:16;14.20;99.90
43671;DHT22;29267;50.906;7.248;2023-09-19T00:40:44;14.20;99.90
43671;DHT22;29267;50.906;7.248;2023-09-19T00:43:10;14.20;99.90
43671;DHT22;29267;50.906;7.248;2023-09-19T00:45:37;14.20;99.90
43671;DHT22;29267;50.906;7.248;2023-09-19T00:48:04;14.10;99.90
43671;DHT22;29267;50.906;7.248;2023-09-19T00:50:35;14.00;99.90
43671;DHT22;29267;50.906;7.248;2023-09-19T00:53:01;14.00;99.90
43671;DHT22;29267;50.906;7.248;2023-09-19T00:55:29;13.90;99.90
43671;DHT22;29267;50.906;7.248;2023-09-19T00:57:56;13.90;99.90
43671;DHT22;29267;50.906;7.248;2023-09-19T01:00:22;13.80;99.90
43671;DHT22;29267;50.906;7.248;2023-09-19T01:02:49;13.80;99.90
43671;DHT22;29267;50.906;7.248;2023-09-19T01:05:14;13.80;99.90
43671;DHT22;29267;50.906;7.248;2023-09-19T01:07:41;13.70;99.90
43671;DHT22;29267;50.906;7.248;2023-09-19T01:10:09;13.80;99.90
43671;DHT22;29267;50.906;7.248;2023-09-19T01:17:58;13.80;99.90
43671;DHT22;29267;50.906;7.248;2023-09-19T01:20:35;13.90;99.90
43671;DHT22;29267;50.906;7.248;2023-09-19T01:23:10;13.90;99.90
43671;DHT22;29267;50.906;7.248;2023-09-19T01:31:06;14.10;99.90
43671;DHT22;29267;50.906;7.248;2023-09-19T01:34:00;14.20;99.90
43671;DHT22;29267;50.906;7.248;2023-09-19T01:36:36;14.30;99.90
43671;DHT22;29267;50.906;7.248;2023-09-19T01:39:06;14.30;99.90
43671;DHT22;29267;50.906;7.248;2023-09-19T01:41:38;14.40;99.90
43671;DHT22;29267;50.906;7.248;2023-09-19T01:44:09;14.40;99.90
43671;DHT22;29267;50.906;7.248;2023-09-19T01:46:40;14.50;99.90
43671;DHT22;29267;50.906;7.248;2023-09-19T01:49:18;14.50;99.90
43671;DHT22;29267;50.906;7.248;2023-09-19T01:52:09;14.60;99.90
43671;DHT22;29267;50.906;7.248;2023-09-19T01:54:46;14.60;99.90
43671;DHT22;29267;50.906;7.248;2023-09-19T01:57:35;14.60;99.90
43671;DHT22;29267;50.906;7.248;2023-09-19T02:00:07;14.60;99.90
43671;DHT22;29267;50.906;7.248;2023-09-19T02:02:37;14.60;99.90
43671;DHT22;29267;50.906;7.248;2023-09-19T02:05:04;14.60;99.90
43671;DHT22;29267;50.906;7.248;2023-09-19T02:07:30;14.70;99.90
43671;DHT22;29267;50.906;7.248;2023-09-19T02:09:59;14.70;99.90
43671;DHT22;29267;50.906;7.248;2023-09-19T02:12:37;14.70;99.90
43671;DHT22;29267;50.906;7.248;2023-09-19T02:15:05;14.70;99.90
43671;DHT22;29267;50.906;7.248;2023-09-19T02:17:33;14.60;99.90
43671;DHT22;29267;50.906;7.248;2023-09-19T02:19:58;14.60;99.90
43671;DHT22;29267;50.906;7.248;2023-09-19T02:22:27;14.60;99.90
43671;DHT22;29267;50.906;7.248;2023-09-19T02:24:53;14.70;99.90
43671;DHT22;29267;50.906;7.248;2023-09-19T02:27:19;14.60;99.90
43671;DHT22;29267;50.906;7.248;2023-09-19T02:29:45;14.70;99.90
43671;DHT22;29267;50.906;7.248;2023-09-19T02:32:10;14.60;99.90
43671;DHT22;29267;50.906;7.248;2023-09-19T02:34:36;14.60;99.90
43671;DHT22;29267;50.906;7.248;2023-09-19T02:37:05;14.60;99.90
43671;DHT22;29267;50.906;7.248;2023-09-19T02:39:32;14.50;99.90
43671;DHT22;29267;50.906;7.248;2023-09-19T02:41:57;14.50;99.90
43671;DHT22;29267;50.906;7.248;2023-09-19T02:44:23;14.40;99.90
43671;DHT22;29267;50.906;7.248;2023-09-19T02:46:49;14.30;99.90
43671;DHT22;29267;50.906;7.248;2023-09-19T02:49:15;14.30;99.90
43671;DHT22;29267;50.906;7.248;2023-09-19T02:51:41;14.20;99.90
43671;DHT22;29267;50.906;7.248;2023-09-19T02:54:07;14.20;99.90
43671;DHT22;29267;50.906;7.248;2023-09-19T02:56:33;14.20;99.90
43671;DHT22;29267;50.906;7.248;2023-09-19T02:58:59;14.20;99.90
43671;DHT22;29267;50.906;7.248;2023-09-19T03:01:26;14.20;99.90
43671;DHT22;29267;50.906;7.248;2023-09-19T03:03:52;14.10;99.90
43671;DHT22;29267;50.906;7.248;2023-09-19T03:06:19;14.20;99.90
43671;DHT22;29267;50.906;7.248;2023-09-19T03:08:45;14.10;99.90
43671;DHT22;29267;50.906;7.248;2023-09-19T03:11:12;14.10;99.90
43671;DHT22;29267;50.906;7.248;2023-09-19T03:13:40;14.10;99.90
43671;DHT22;29267;50.906;7.248;2023-09-19T03:16:08;14.00;99.90
43671;DHT22;29267;50.906;7.248;2023-09-19T03:18:36;14.00;99.90
43671;DHT22;29267;50.906;7.248;2023-09-19T03:21:02;14.00;99.90
43671;DHT22;29267;50.906;7.248;2023-09-19T03:23:28;14.00;99.90
43671;DHT22;29267;50.906;7.248;2023-09-19T03:25:55;14.00;99.90
43671;DHT22;29267;50.906;7.248;2023-09-19T03:28:21;13.90;99.90
43671;DHT22;29267;50.906;7.248;2023-09-19T03:31:04;13.90;99.90
43671;DHT22;29267;50.906;7.248;2023-09-19T03:33:30;13.90;99.90
43671;DHT22;29267;50.906;7.248;2023-09-19T03:35:59;13.80;99.90
43671;DHT22;29267;50.906;7.248;2023-09-19T03:38:26;13.80;99.90
43671;DHT22;29267;50.906;7.248;2023-09-19T03:40:52;13.80;99.90
43671;DHT22;29267;50.906;7.248;2023-09-19T03:43:17;13.80;99.90
43671;DHT22;29267;50.906;7.248;2023-09-19T03:45:43;13.80;99.90
43671;DHT22;29267;50.906;7.248;2023-09-19T03:48:09;13.70;99.90
43671;DHT22;29267;50.906;7.248;2023-09-19T03:50:35;13.70;99.90
43671;DHT22;29267;50.906;7.248;2023-09-19T03:53:01;13.60;99.90
43671;DHT22;29267;50.906;7.248;2023-09-19T03:55:27;13.70;99.90
43671;DHT22;29267;50.906;7.248;2023-09-19T03:57:53;13.60;99.90
43671;DHT22;29267;50.906;7.248;2023-09-19T04:00:19;13.60;99.90
43671;DHT22;29267;50.906;7.248;2023-09-19T04:02:47;13.50;99.90
43671;DHT22;29267;50.906;7.248;2023-09-19T04:05:13;13.50;99.90
43671;DHT22;29267;50.906;7.248;2023-09-19T04:07:39;13.50;99.90
43671;DHT22;29267;50.906;7.248;2023-09-19T04:10:05;13.50;99.90
43671;DHT22;29267;50.906;7.248;2023-09-19T04:12:31;13.40;99.90
43671;DHT22;29267;50.906;7.248;2023-09-19T04:14:57;13.40;99.90
43671;DHT22;29267;50.906;7.248;2023-09-19T04:17:23;13.30;99.90
43671;DHT22;29267;50.906;7.248;2023-09-19T04:19:49;13.30;99.90
43671;DHT22;29267;50.906;7.248;2023-09-19T04:22:14;13.30;99.90
43671;DHT22;29267;50.906;7.248;2023-09-19T04:24:40;13.20;99.90
43671;DHT22;29267;50.906;7.248;2023-09-19T04:27:05;13.20;99.90
43671;DHT22;29267;50.906;7.248;2023-09-19T04:29:32;13.10;99.90
43671;DHT22;29267;50.906;7.248;2023-09-19T04:31:58;13.10;99.90
43671;DHT22;29267;50.906;7.248;2023-09-19T04:34:23;13.10;99.90
43671;DHT22;29267;50.906;7.248;2023-09-19T04:36:49;13.10;99.90
43671;DHT22;29267;50.906;7.248;2023-09-19T04:39:15;13.00;99.90
43671;DHT22;29267;50.906;7.248;2023-09-19T04:41:42;13.00;99.90
43671;DHT22;29267;50.906;7.248;2023-09-19T04:44:07;13.00;99.90
43671;DHT22;29267;50.906;7.248;2023-09-19T04:46:34;12.90;99.90
43671;DHT22;29267;50.906;7.248;2023-09-19T04:49:00;12.90;99.90
43671;DHT22;29267;50.906;7.248;2023-09-19T04:51:26;12.80;99.90
43671;DHT22;29267;50.906;7.248;2023-09-19T04:53:54;12.90;99.90
43671;DHT22;29267;50.906;7.248;2023-09-19T04:56:20;12.90;99.90
43671;DHT22;29267;50.906;7.248;2023-09-19T04:58:46;12.90;99.90
43671;DHT22;29267;50.906;7.248;2023-09-19T05:01:12;12.80;99.90
43671;DHT22;29267;50.906;7.248;2023-09-19T05:03:40;12.80;99.90
43671;DHT22;29267;50.906;7.248;2023-09-19T05:06:05;12.80;99.90
43671;DHT22;29267;50.906;7.248;2023-09-19T05:08:31;12.80;99.90
43671;DHT22;29267;50.906;7.248;2023-09-19T05:10:57;12.80;99.90
43671;DHT22;29267;50.906;7.248;2023-09-19T05:13:22;12.70;99.90
43671;DHT22;29267;50.906;7.248;2023-09-19T05:15:52;12.70;99.90
43671;DHT22;29267;50.906;7.248;2023-09-19T05:18:18;12.80;99.90
43671;DHT22;29267;50.906;7.248;2023-09-19T05:20:44;12.80;99.90
43671;DHT22;29267;50.906;7.248;2023-09-19T05:23:09;12.80;99.90
43671;DHT22;29267;50.906;7.248;2023-09-19T05:25:38;12.80;99.90
43671;DHT22;29267;50.906;7.248;2023-09-19T05:28:05;12.80;99.90
43671;DHT22;29267;50.906;7.248;2023-09-19T05:30:32;12.90;99.90
43671;DHT22;29267;50.906;7.248;2023-09-19T05:32:58;12.90;99.90
43671;DHT22;29267;50.906;7.248;2023-09-19T05:35:24;12.90;99.90
43671;DHT22;29267;50.906;7.248;2023-09-19T05:37:53;12.90;99.90
43671;DHT22;29267;50.906;7.248;2023-09-19T05:40:20;12.90;99.90
43671;DHT22;29267;50.906;7.248;2023-09-19T05:42:47;13.00;99.90
43671;DHT22;29267;50.906;7.248;2023-09-19T05:45:13;13.00;99.90
43671;DHT22;29267;50.906;7.248;2023-09-19T05:47:42;13.00;99.90
43671;DHT22;29267;50.906;7.248;2023-09-19T05:50:11;13.00;99.90
43671;DHT22;29267;50.906;7.248;2023-09-19T05:52:37;13.10;99.90
43671;DHT22;29267;50.906;7.248;2023-09-19T05:55:06;13.10;99.90
43671;DHT22;29267;50.906;7.248;2023-09-19T05:57:36;13.20;99.90
43671;DHT22;29267;50.906;7.248;2023-09-19T06:00:02;13.30;99.90
43671;DHT22;29267;50.906;7.248;2023-09-19T06:02:35;13.40;99.90
43671;DHT22;29267;50.906;7.248;2023-09-19T06:05:01;13.40;99.90
43671;DHT22;29267;50.906;7.248;2023-09-19T06:07:26;13.50;99.90
43671;DHT22;29267;50.906;7.248;2023-09-19T06:10:02;13.60;99.90
43671;DHT22;29267;50.906;7.248;2023-09-19T06:12:28;13.60;99.90
43671;DHT22;29267;50.906;7.248;2023-09-19T06:14:53;13.70;99.90
43671;DHT22;29267;50.906;7.248;2023-09-19T06:17:19;13.70;99.90
43671;DHT22;29267;50.906;7.248;2023-09-19T06:19:47;13.90;99.90
43671;DHT22;29267;50.906;7.248;2023-09-19T06:22:15;13.90;99.90
43671;DHT22;29267;50.906;7.248;2023-09-19T06:24:43;14.00;99.90
43671;DHT22;29267;50.906;7.248;2023-09-19T06:27:08;14.10;99.90
43671;DHT22;29267;50.906;7.248;2023-09-19T06:29:34;14.10;99.90
43671;DHT22;29267;50.906;7.248;2023-09-19T06:32:00;14.10;99.90
43671;DHT22;29267;50.906;7.248;2023-09-19T06:34:26;14.20;99.90
43671;DHT22;29267;50.906;7.248;2023-09-19T06:36:52;14.30;99.90
43671;DHT22;29267;50.906;7.248;2023-09-19T06:39:18;14.30;99.90
43671;DHT22;29267;50.906;7.248;2023-09-19T06:41:43;14.40;99.90
43671;DHT22;29267;50.906;7.248;2023-09-19T06:44:10;14.50;99.90
43671;DHT22;29267;50.906;7.248;2023-09-19T06:46:36;14.70;99.90
43671;DHT22;29267;50.906;7.248;2023-09-19T06:49:04;14.70;99.90
43671;DHT22;29267;50.906;7.248;2023-09-19T06:51:32;14.80;99.90
43671;DHT22;29267;50.906;7.248;2023-09-19T06:54:00;14.90;99.90
43671;DHT22;29267;50.906;7.248;2023-09-19T06:56:26;15.00;99.90
43671;DHT22;29267;50.906;7.248;2023-09-19T06:58:52;15.10;99.90
43671;DHT22;29267;50.906;7.248;2023-09-19T07:01:17;15.20;99.90
43671;DHT22;29267;50.906;7.248;2023-09-19T07:03:43;15.30;99.90
43671;DHT22;29267;50.906;7.248;2023-09-19T07:06:11;15.40;99.90
43671;DHT22;29267;50.906;7.248;2023-09-19T07:08:36;15.50;99.90
43671;DHT22;29267;50.906;7.248;2023-09-19T07:11:04;15.70;99.90
43671;DHT22;29267;50.906;7.248;2023-09-19T07:13:31;15.90;99.90
43671;DHT22;29267;50.906;7.248;2023-09-19T07:15:58;15.90;99.90
43671;DHT22;29267;50.906;7.248;2023-09-19T07:18:25;16.00;99.90
43671;DHT22;29267;50.906;7.248;2023-09-19T07:20:51;16.00;99.90
43671;DHT22;29267;50.906;7.248;2023-09-19T07:23:21;16.20;99.90
43671;DHT22;29267;50.906;7.248;2023-09-19T07:25:48;16.30;99.90
43671;DHT22;29267;50.906;7.248;2023-09-19T07:28:14;16.40;99.90
43671;DHT22;29267;50.906;7.248;2023-09-19T07:30:40;16.50;99.90
43671;DHT22;29267;50.906;7.248;2023-09-19T07:33:07;16.50;99.90
43671;DHT22;29267;50.906;7.248;2023-09-19T07:35:37;16.60;99.90
43671;DHT22;29267;50.906;7.248;2023-09-19T07:38:05;16.70;99.90
43671;DHT22;29267;50.906;7.248;2023-09-19T07:40:30;16.70;99.90
43671;DHT22;29267;50.906;7.248;2023-09-19T07:42:56;17.00;99.90
43671;DHT22;29267;50.906;7.248;2023-09-19T07:45:22;17.00;99.90
43671;DHT22;29267;50.906;7.248;2023-09-19T07:47:48;17.20;99.90
43671;DHT22;29267;50.906;7.248;2023-09-19T07:50:15;17.30;99.90
43671;DHT22;29267;50.906;7.248;2023-09-19T07:52:42;17.40;99.90
43671;DHT22;29267;50.906;7.248;2023-09-19T07:55:08;17.50;99.90
43671;DHT22;29267;50.906;7.248;2023-09-19T07:57:35;17.70;99.90
43671;DHT22;29267;50.906;7.248;2023-09-19T08:00:01;17.80;99.90
43671;DHT22;29267;50.906;7.248;2023-09-19T08:02:30;18.10;99.90
43671;DHT22;29267;50.906;7.248;2023-09-19T08:04:55;18.20;99.90
43671;DHT22;29267;50.906;7.248;2023-09-19T08:07:23;18.40;99.90
43671;DHT22;29267;50.906;7.248;2023-09-19T08:09:48;18.50;99.90
43671;DHT22;29267;50.906;7.248;2023-09-19T08:12:14;18.70;99.90
43671;DHT22;29267;50.906;7.248;2023-09-19T08:14:40;18.90;99.90
43671;DHT22;29267;50.906;7.248;2023-09-19T08:17:09;19.30;99.90
43671;DHT22;29267;50.906;7.248;2023-09-19T08:19:34;19.30;99.90
43671;DHT22;29267;50.906;7.248;2023-09-19T08:22:02;19.20;99.90
43671;DHT22;29267;50.906;7.248;2023-09-19T08:24:29;19.40;99.90
43671;DHT22;29267;50.906;7.248;2023-09-19T08:26:55;19.40;99.90
43671;DHT22;29267;50.906;7.248;2023-09-19T08:29:22;19.30;99.90
43671;DHT22;29267;50.906;7.248;2023-09-19T08:32:01;19.10;99.90
43671;DHT22;29267;50.906;7.248;2023-09-19T08:34:27;19.00;99.90
43671;DHT22;29267;50.906;7.248;2023-09-19T08:36:54;19.30;99.90
43671;DHT22;29267;50.906;7.248;2023-09-19T08:39:23;19.40;99.90
43671;DHT22;29267;50.906;7.248;2023-09-19T08:41:49;19.60;99.90
43671;DHT22;29267;50.906;7.248;2023-09-19T08:44:15;19.50;99.90
43671;DHT22;29267;50.906;7.248;2023-09-19T08:46:41;19.80;99.90
43671;DHT22;29267;50.906;7.248;2023-09-19T08:49:28;20.00;99.90
43671;DHT22;29267;50.906;7.248;2023-09-19T08:52:11;20.10;99.90
43671;DHT22;29267;50.906;7.248;2023-09-19T08:54:41;20.10;99.90
43671;DHT22;29267;50.906;7.248;2023-09-19T08:57:08;20.00;99.90
43671;DHT22;29267;50.906;7.248;2023-09-19T08:59:37;19.90;99.90
43671;DHT22;29267;50.906;7.248;2023-09-19T09:02:12;20.10;99.90
43671;DHT22;29267;50.906;7.248;2023-09-19T09:04:41;20.10;99.90
43671;DHT22;29267;50.906;7.248;2023-09-19T09:07:13;20.20;99.90
43671;DHT22;29267;50.906;7.248;2023-09-19T09:09:40;20.40;99.90
43671;DHT22;29267;50.906;7.248;2023-09-19T09:12:13;20.60;99.90
43671;DHT22;29267;50.906;7.248;2023-09-19T09:14:39;20.60;98.50
43671;DHT22;29267;50.906;7.248;2023-09-19T09:17:05;20.40;98.00
43671;DHT22;29267;50.906;7.248;2023-09-19T09:19:32;20.40;98.70
43671;DHT22;29267;50.906;7.248;2023-09-19T09:22:08;20.70;98.70
43671;DHT22;29267;50.906;7.248;2023-09-19T09:24:34;20.90;97.00
43671;DHT22;29267;50.906;7.248;2023-09-19T09:27:04;20.90;97.10
43671;DHT22;29267;50.906;7.248;2023-09-19T09:29:49;21.00;96.90
43671;DHT22;29267;50.906;7.248;2023-09-19T09:32:22;21.20;96.10
43671;DHT22;29267;50.906;7.248;2023-09-19T09:34:56;21.30;97.00
43671;DHT22;29267;50.906;7.248;2023-09-19T09:37:22;21.10;97.30
43671;DHT22;29267;50.906;7.248;2023-09-19T09:39:54;21.50;96.40
43671;DHT22;29267;50.906;7.248;2023-09-19T09:42:42;21.50;96.50
43671;DHT22;29267;50.906;7.248;2023-09-19T09:45:15;21.70;95.60
43671;DHT22;29267;50.906;7.248;2023-09-19T09:47:47;22.00;95.00
43671;DHT22;29267;50.906;7.248;2023-09-19T09:52:55;22.10;94.00
43671;DHT22;29267;50.906;7.248;2023-09-19T09:56:07;21.80;93.70
43671;DHT22;29267;50.906;7.248;2023-09-19T09:58:33;21.70;95.60
43671;DHT22;29267;50.906;7.248;2023-09-19T10:01:04;21.20;95.40
43671;DHT22;29267;50.906;7.248;2023-09-19T10:03:40;21.20;95.30
43671;DHT22;29267;50.906;7.248;2023-09-19T10:06:13;21.30;95.70
43671;DHT22;29267;50.906;7.248;2023-09-19T10:09:07;21.20;95.40
43671;DHT22;29267;50.906;7.248;2023-09-19T10:11:43;21.00;95.80
43671;DHT22;29267;50.906;7.248;2023-09-19T10:14:11;21.10;95.90
43671;DHT22;29267;50.906;7.248;2023-09-19T10:16:40;21.00;96.10
43671;DHT22;29267;50.906;7.248;2023-09-19T10:19:07;21.10;96.10
43671;DHT22;29267;50.906;7.248;2023-09-19T10:21:36;20.80;95.80
43671;DHT22;29267;50.906;7.248;2023-09-19T10:24:03;20.90;96.70
43671;DHT22;29267;50.906;7.248;2023-09-19T10:26:34;21.20;96.60
43671;DHT22;29267;50.906;7.248;2023-09-19T10:29:01;21.30;96.40
43671;DHT22;29267;50.906;7.248;2023-09-19T10:31:29;21.40;95.70
43671;DHT22;29267;50.906;7.248;2023-09-19T10:34:02;21.30;96.10
43671;DHT22;29267;50.906;7.248;2023-09-19T10:36:33;21.30;96.10
43671;DHT22;29267;50.906;7.248;2023-09-19T10:39:02;21.40;95.80
43671;DHT22;29267;50.906;7.248;2023-09-19T10:41:32;21.90;96.10
43671;DHT22;29267;50.906;7.248;2023-09-19T10:44:03;22.20;94.70
43671;DHT22;29267;50.906;7.248;2023-09-19T10:46:31;22.00;94.50
43671;DHT22;29267;50.906;7.248;2023-09-19T10:49:01;21.70;94.10
43671;DHT22;29267;50.906;7.248;2023-09-19T10:51:38;21.60;94.70
43671;DHT22;29267;50.906;7.248;2023-09-19T10:54:16;21.70;94.80
43671;DHT22;29267;50.906;7.248;2023-09-19T10:56:46;22.00;94.60
43671;DHT22;29267;50.906;7.248;2023-09-19T10:59:21;22.10;93.90
43671;DHT22;29267;50.906;7.248;2023-09-19T11:01:51;21.70;94.20
43671;DHT22;29267;50.906;7.248;2023-09-19T11:04:33;21.80;93.70
43671;DHT22;29267;50.906;7.248;2023-09-19T11:07:10;21.60;93.80
43671;DHT22;29267;50.906;7.248;2023-09-19T11:09:50;21.40;94.20
43671;DHT22;29267;50.906;7.248;2023-09-19T11:18:53;21.30;94.80
43671;DHT22;29267;50.906;7.248;2023-09-19T11:26:44;21.40;95.10
43671;DHT22;29267;50.906;7.248;2023-09-19T11:29:29;21.20;94.10
43671;DHT22;29267;50.906;7.248;2023-09-19T11:31:57;21.20;95.00
43671;DHT22;29267;50.906;7.248;2023-09-19T11:40:06;21.20;94.30
43671;DHT22;29267;50.906;7.248;2023-09-19T11:42:45;21.30;94.50
43671;DHT22;29267;50.906;7.248;2023-09-19T11:48:23;21.40;94.10
43671;DHT22;29267;50.906;7.248;2023-09-19T11:50:52;21.60;94.00
43671;DHT22;29267;50.906;7.248;2023-09-19T11:53:18;21.60;93.40
43671;DHT22;29267;50.906;7.248;2023-09-19T11:55:45;21.70;93.70
43671;DHT22;29267;50.906;7.248;2023-09-19T11:58:14;21.70;92.10
43671;DHT22;29267;50.906;7.248;2023-09-19T12:00:43;21.70;93.30
43671;DHT22;29267;50.906;7.248;2023-09-19T12:03:11;21.60;93.50
43671;DHT22;29267;50.906;7.248;2023-09-19T12:05:37;21.50;93.80
43671;DHT22;29267;50.906;7.248;2023-09-19T12:08:07;21.60;92.80
43671;DHT22;29267;50.906;7.248;2023-09-19T12:10:54;21.80;92.20
43671;DHT22;29267;50.906;7.248;2023-09-19T12:13:23;21.70;91.70
43671;DHT22;29267;50.906;7.248;2023-09-19T12:15:49;21.70;91.80
43671;DHT22;29267;50.906;7.248;2023-09-19T12:18:30;21.80;91.60
43671;DHT22;29267;50.906;7.248;2023-09-19T12:20:55;21.50;91.60
43671;DHT22;29267;50.906;7.248;2023-09-19T12:23:23;21.30;92.60
43671;DHT22;29267;50.906;7.248;2023-09-19T12:25:48;21.10;91.50
43671;DHT22;29267;50.906;7.248;2023-09-19T12:28:18;21.10;92.10
43671;DHT22;29267;50.906;7.248;2023-09-19T12:30:43;21.00;93.00
43671;DHT22;29267;50.906;7.248;2023-09-19T12:33:19;21.20;94.40
43671;DHT22;29267;50.906;7.248;2023-09-19T12:35:45;21.30;92.60
43671;DHT22;29267;50.906;7.248;2023-09-19T12:38:13;21.20;92.30
43671;DHT22;29267;50.906;7.248;2023-09-19T12:40:49;21.30;92.40
43671;DHT22;29267;50.906;7.248;2023-09-19T12:43:17;21.20;91.60
43671;DHT22;29267;50.906;7.248;2023-09-19T12:45:43;21.20;92.10
43671;DHT22;29267;50.906;7.248;2023-09-19T12:48:28;21.20;91.70
43671;DHT22;29267;50.906;7.248;2023-09-19T12:53:28;20.70;92.20
43671;DHT22;29267;50.906;7.248;2023-09-19T12:56:00;20.60;93.10
43671;DHT22;29267;50.906;7.248;2023-09-19T12:58:28;20.60;93.50
43671;DHT22;29267;50.906;7.248;2023-09-19T13:00:56;20.60;93.10
43671;DHT22;29267;50.906;7.248;2023-09-19T13:03:27;20.50;93.00
43671;DHT22;29267;50.906;7.248;2023-09-19T13:06:02;20.60;93.50
43671;DHT22;29267;50.906;7.248;2023-09-19T13:08:34;20.60;93.20
43671;DHT22;29267;50.906;7.248;2023-09-19T13:11:04;20.50;93.20
43671;DHT22;29267;50.906;7.248;2023-09-19T13:14:14;20.30;93.60
43671;DHT22;29267;50.906;7.248;2023-09-19T13:19:39;20.40;93.80
43671;DHT22;29267;50.906;7.248;2023-09-19T13:22:51;20.50;92.60
43671;DHT22;29267;50.906;7.248;2023-09-19T13:24:51;20.50;93.60
43671;DHT22;29267;50.906;7.248;2023-09-19T13:27:17;20.40;93.10
43671;DHT22;29267;50.906;7.248;2023-09-19T13:29:42;20.40;93.60
43671;DHT22;29267;50.906;7.248;2023-09-19T13:32:08;20.40;93.40
43671;DHT22;29267;50.906;7.248;2023-09-19T13:34:36;20.20;93.70
43671;DHT22;29267;50.906;7.248;2023-09-19T13:37:03;20.30;94.20
43671;DHT22;29267;50.906;7.248;2023-09-19T13:39:30;20.20;93.70
43671;DHT22;29267;50.906;7.248;2023-09-19T13:41:55;20.20;93.70
43671;DHT22;29267;50.906;7.248;2023-09-19T13:44:21;20.20;93.30
43671;DHT22;29267;50.906;7.248;2023-09-19T13:46:46;20.20;93.80
43671;DHT22;29267;50.906;7.248;2023-09-19T13:49:12;20.20;93.90
43671;DHT22;29267;50.906;7.248;2023-09-19T13:51:38;20.20;93.90
43671;DHT22;29267;50.906;7.248;2023-09-19T13:54:04;20.20;93.90
43671;DHT22;29267;50.906;7.248;2023-09-19T13:56:29;20.30;94.20
43671;DHT22;29267;50.906;7.248;2023-09-19T13:58:56;20.30;94.20
43671;DHT22;29267;50.906;7.248;2023-09-19T14:01:22;20.40;94.30
43671;DHT22;29267;50.906;7.248;2023-09-19T14:03:47;20.50;94.10
43671;DHT22;29267;50.906;7.248;2023-09-19T14:06:15;20.60;93.80
43671;DHT22;29267;50.906;7.248;2023-09-19T14:08:41;20.70;94.00
43671;DHT22;29267;50.906;7.248;2023-09-19T14:11:10;20.60;93.40
43671;DHT22;29267;50.906;7.248;2023-09-19T14:13:36;20.40;93.90
43671;DHT22;29267;50.906;7.248;2023-09-19T14:16:05;20.50;93.70
43671;DHT22;29267;50.906;7.248;2023-09-19T14:18:31;20.50;93.60
43671;DHT22;29267;50.906;7.248;2023-09-19T14:20:57;20.60;94.10
43671;DHT22;29267;50.906;7.248;2023-09-19T14:23:23;20.60;93.60
43671;DHT22;29267;50.906;7.248;2023-09-19T14:25:50;20.60;93.70
43671;DHT22;29267;50.906;7.248;2023-09-19T14:28:17;20.60;93.50
43671;DHT22;29267;50.906;7.248;2023-09-19T14:30:42;20.60;93.90
43671;DHT22;29267;50.906;7.248;2023-09-19T14:33:08;20.60;93.80
43671;DHT22;29267;50.906;7.248;2023-09-19T14:35:37;20.60;94.10
43671;DHT22;29267;50.906;7.248;2023-09-19T14:38:02;20.60;94.60
43671;DHT22;29267;50.906;7.248;2023-09-19T14:40:28;20.60;93.90
43671;DHT22;29267;50.906;7.248;2023-09-19T14:42:53;20.60;94.00
43671;DHT22;29267;50.906;7.248;2023-09-19T14:45:19;20.60;93.90
43671;DHT22;29267;50.906;7.248;2023-09-19T14:47:46;20.50;94.00
43671;DHT22;29267;50.906;7.248;2023-09-19T14:50:12;20.50;94.50
43671;DHT22;29267;50.906;7.248;2023-09-19T14:52:37;20.40;93.90
43671;DHT22;29267;50.906;7.248;2023-09-19T14:55:06;20.40;94.30
43671;DHT22;29267;50.906;7.248;2023-09-19T14:57:31;20.20;94.10
43671;DHT22;29267;50.906;7.248;2023-09-19T14:59:58;20.20;94.70
43671;DHT22;29267;50.906;7.248;2023-09-19T15:02:24;20.00;94.00
43671;DHT22;29267;50.906;7.248;2023-09-19T15:04:50;20.00;94.60
43671;DHT22;29267;50.906;7.248;2023-09-19T15:07:16;20.10;94.50
43671;DHT22;29267;50.906;7.248;2023-09-19T15:09:43;20.10;94.60
43671;DHT22;29267;50.906;7.248;2023-09-19T15:12:09;20.20;94.40
43671;DHT22;29267;50.906;7.248;2023-09-19T15:14:34;20.20;94.00
43671;DHT22;29267;50.906;7.248;2023-09-19T15:17:00;20.10;94.40
43671;DHT22;29267;50.906;7.248;2023-09-19T15:19:25;20.00;94.40
43671;DHT22;29267;50.906;7.248;2023-09-19T15:21:51;20.00;94.10
43671;DHT22;29267;50.906;7.248;2023-09-19T15:24:17;20.00;94.60
43671;DHT22;29267;50.906;7.248;2023-09-19T15:26:43;20.00;94.50
43671;DHT22;29267;50.906;7.248;2023-09-19T15:29:10;20.00;94.80
43671;DHT22;29267;50.906;7.248;2023-09-19T15:31:36;19.90;94.70
43671;DHT22;29267;50.906;7.248;2023-09-19T15:34:02;19.90;95.10
43671;DHT22;29267;50.906;7.248;2023-09-19T15:36:29;19.80;96.10
43671;DHT22;29267;50.906;7.248;2023-09-19T15:39:04;19.60;96.00
43671;DHT22;29267;50.906;7.248;2023-09-19T15:43:59;19.40;95.30
43671;DHT22;29267;50.906;7.248;2023-09-19T15:46:30;19.30;95.10
43671;DHT22;29267;50.906;7.248;2023-09-19T15:48:57;19.30;95.00
43671;DHT22;29267;50.906;7.248;2023-09-19T15:51:23;19.20;95.40
43671;DHT22;29267;50.906;7.248;2023-09-19T15:53:51;19.20;95.70
43671;DHT22;29267;50.906;7.248;2023-09-19T15:56:18;19.20;95.30
43671;DHT22;29267;50.906;7.248;2023-09-19T15:58:44;19.20;96.50
43671;DHT22;29267;50.906;7.248;2023-09-19T16:01:11;19.20;95.60
43671;DHT22;29267;50.906;7.248;2023-09-19T16:03:44;19.10;95.40
43671;DHT22;29267;50.906;7.248;2023-09-19T16:06:18;19.20;95.60
43671;DHT22;29267;50.906;7.248;2023-09-19T16:08:49;19.20;95.40
43671;DHT22;29267;50.906;7.248;2023-09-19T16:11:16;19.20;96.10
43671;DHT22;29267;50.906;7.248;2023-09-19T16:13:42;19.10;96.00
43671;DHT22;29267;50.906;7.248;2023-09-19T16:16:12;19.10;96.20
43671;DHT22;29267;50.906;7.248;2023-09-19T16:18:39;19.10;96.40
43671;DHT22;29267;50.906;7.248;2023-09-19T16:21:06;19.10;96.50